createdAt,value
2018-02-08T00:01:14.394Z,97976.45
2018-02-08T00:03:41.946Z,97975.95
2018-02-08T00:06:09.545Z,97978.72
2018-02-08T00:08:37.091Z,97971.74
2018-02-08T00:11:04.620Z,97972.11
2018-02-08T00:13:32.141Z,97972.31
2018-02-08T00:15:59.698Z,97969.69
2018-02-08T00:18:27.494Z,97976.86
2018-02-08T00:20:55.204Z,97971.78
2018-02-08T00:23:22.734Z,97973.53
2018-02-08T00:25:50.267Z,97965.14
2018-02-08T00:28:18.891Z,97974.14
2018-02-08T00:30:46.542Z,97967.39
2018-02-08T00:33:14.064Z,97975.83
2018-02-08T00:35:41.743Z,97969.93
2018-02-08T00:38:09.334Z,97968.81
2018-02-08T00:40:36.954Z,97968.67
2018-02-08T00:43:04.538Z,97972.33
2018-02-08T00:45:32.077Z,97972.96
2018-02-08T00:47:59.619Z,97976.17
2018-02-08T00:50:27.150Z,97972.94
2018-02-08T00:52:54.660Z,97971.98
2018-02-08T00:55:22.175Z,97969.95
2018-02-08T00:57:49.737Z,97973.16
2018-02-08T01:00:17.321Z,97974.48
2018-02-08T01:02:44.931Z,97979.02
2018-02-08T01:05:12.508Z,97977.01
2018-02-08T01:07:40.026Z,97977.52
2018-02-08T01:10:07.549Z,97973.13
2018-02-08T01:12:35.076Z,97979.72
2018-02-08T01:15:02.591Z,97981.48
2018-02-08T01:17:30.119Z,97988.23
2018-02-08T01:19:57.656Z,97981.31
2018-02-08T01:22:25.164Z,97976.97
2018-02-08T01:24:52.683Z,97976.86
2018-02-08T01:27:20.301Z,97977.09
2018-02-08T01:29:47.891Z,97979.34
2018-02-08T01:32:15.493Z,97977.16
2018-02-08T01:34:43.009Z,97976.63
2018-02-08T01:37:10.634Z,97979.67
2018-02-08T01:39:39.088Z,97980.34
2018-02-08T01:42:06.645Z,97976.53
2018-02-08T01:44:34.250Z,97982.08
2018-02-08T01:47:01.839Z,97983.27
2018-02-08T01:49:41.275Z,97983.64
2018-02-08T01:52:08.804Z,97985.41
2018-02-08T01:54:36.387Z,97988.14
2018-02-08T01:57:03.959Z,97987.33
2018-02-08T01:59:31.484Z,97992.75
2018-02-08T02:01:59.008Z,97988.70
2018-02-08T02:04:26.544Z,97984.20
2018-02-08T02:06:54.094Z,97989.22
2018-02-08T02:09:21.684Z,97989.23
2018-02-08T02:11:49.214Z,97983.00
2018-02-08T02:14:16.760Z,97985.77
2018-02-08T02:16:44.284Z,97988.66
2018-02-08T02:19:11.798Z,97987.39
2018-02-08T02:21:39.395Z,97982.00
2018-02-08T02:24:06.962Z,97981.30
2018-02-08T02:26:34.556Z,97988.81
2018-02-08T02:29:02.134Z,97988.25
2018-02-08T02:31:29.718Z,97991.03
2018-02-08T02:33:57.301Z,97981.08
2018-02-08T02:36:24.836Z,97987.55
2018-02-08T02:38:52.369Z,97984.67
2018-02-08T02:41:19.960Z,97991.95
2018-02-08T02:43:47.615Z,97994.48
2018-02-08T02:46:15.181Z,97995.06
2018-02-08T02:48:42.760Z,97994.07
2018-02-08T02:51:10.308Z,97994.84
2018-02-08T02:53:37.949Z,97989.34
2018-02-08T02:56:05.485Z,97995.58
2018-02-08T02:58:34.049Z,97996.45
2018-02-08T03:01:01.596Z,97995.77
2018-02-08T03:03:29.214Z,98002.27
2018-02-08T03:05:57.573Z,98002.21
2018-02-08T03:08:25.094Z,98001.37
2018-02-08T03:10:52.636Z,98011.47
2018-02-08T03:13:20.151Z,98007.00
2018-02-08T03:15:48.086Z,98008.55
2018-02-08T03:18:15.618Z,98005.39
2018-02-08T03:20:43.148Z,98009.43
2018-02-08T03:23:10.759Z,98006.71
2018-02-08T03:25:38.695Z,98012.33
2018-02-08T03:28:06.235Z,98009.25
2018-02-08T03:30:33.775Z,98012.25
2018-02-08T03:33:01.294Z,98012.34
2018-02-08T03:35:29.005Z,98012.22
2018-02-08T03:37:56.565Z,98011.64
2018-02-08T03:40:24.118Z,98012.20
2018-02-08T03:42:51.666Z,98017.23
2018-02-08T03:45:19.284Z,98021.51
2018-02-08T03:47:46.800Z,98022.77
2018-02-08T03:50:14.320Z,98023.78
2018-02-08T03:52:41.953Z,98029.65
2018-02-08T03:55:09.474Z,98028.22
2018-02-08T03:57:37.025Z,98033.66
2018-02-08T04:00:04.549Z,98031.49
2018-02-08T04:02:32.134Z,98035.13
2018-02-08T04:04:59.685Z,98032.48
2018-02-08T04:07:27.241Z,98028.16
2018-02-08T04:09:54.815Z,98031.48
2018-02-08T04:12:22.574Z,98028.91
2018-02-08T04:14:50.126Z,98030.98
2018-02-08T04:17:17.738Z,98032.59
2018-02-08T04:19:45.336Z,98041.74
2018-02-08T04:22:12.859Z,98040.28
2018-02-08T04:24:40.420Z,98045.42
2018-02-08T04:27:07.939Z,98046.00
2018-02-08T04:29:35.526Z,98052.41
2018-02-08T04:32:03.050Z,98050.92
2018-02-08T04:34:30.650Z,98058.36
2018-02-08T04:36:58.198Z,98054.19
2018-02-08T04:39:37.632Z,98058.05
2018-02-08T04:42:17.010Z,98061.36
2018-02-08T04:44:56.411Z,98066.61
2018-02-08T04:47:27.918Z,98069.11
2018-02-08T04:49:55.499Z,98075.33
2018-02-08T04:52:23.081Z,98078.40
2018-02-08T04:54:50.689Z,98074.52
2018-02-08T04:57:18.212Z,98074.72
2018-02-08T04:59:45.844Z,98071.88
2018-02-08T05:02:14.216Z,98075.73
2018-02-08T05:04:41.850Z,98071.02
2018-02-08T05:07:09.454Z,98076.97
2018-02-08T05:09:37.039Z,98078.30
2018-02-08T05:12:04.577Z,98084.12
2018-02-08T05:14:32.124Z,98080.44
2018-02-08T05:16:59.637Z,98087.17
2018-02-08T05:19:27.161Z,98088.05
2018-02-08T05:21:54.800Z,98086.56
2018-02-08T05:24:22.351Z,98095.11
2018-02-08T05:26:49.900Z,98094.56
2018-02-08T05:29:17.449Z,98102.97
2018-02-08T05:31:44.965Z,98099.84
2018-02-08T05:34:12.536Z,98099.04
2018-02-08T05:36:40.085Z,98092.50
2018-02-08T05:39:07.656Z,98095.17
2018-02-08T05:41:35.170Z,98096.94
2018-02-08T05:44:02.720Z,98100.35
2018-02-08T05:46:30.255Z,98096.67
2018-02-08T05:48:57.855Z,98102.84
2018-02-08T05:51:31.671Z,98102.91
2018-02-08T05:53:59.236Z,98105.27
2018-02-08T05:56:26.885Z,98112.05
2018-02-08T05:58:54.422Z,98117.13
2018-02-08T06:01:21.945Z,98120.16
2018-02-08T06:03:49.509Z,98123.34
2018-02-08T06:06:17.191Z,98124.84
2018-02-08T06:08:44.765Z,98126.66
2018-02-08T06:11:15.781Z,98124.69
2018-02-08T06:13:43.408Z,98128.89
2018-02-08T06:16:11.001Z,98127.63
2018-02-08T06:18:38.526Z,98130.24
2018-02-08T06:21:06.099Z,98136.25
2018-02-08T06:23:33.639Z,98137.08
2018-02-08T06:26:01.240Z,98134.91
2018-02-08T06:28:28.767Z,98136.13
2018-02-08T06:30:56.541Z,98132.09
2018-02-08T06:33:24.056Z,98137.80
2018-02-08T06:35:56.401Z,98143.27
2018-02-08T06:38:23.961Z,98136.61
2018-02-08T06:40:51.489Z,98144.75
2018-02-08T06:43:19.045Z,98147.39
2018-02-08T06:45:47.746Z,98146.31
2018-02-08T06:48:15.364Z,98146.48
2018-02-08T06:50:42.910Z,98147.66
2018-02-08T06:53:10.469Z,98150.98
2018-02-08T06:55:37.993Z,98157.87
2018-02-08T06:58:05.761Z,98155.16
2018-02-08T07:00:33.269Z,98168.06
2018-02-08T07:03:00.825Z,98166.79
2018-02-08T07:05:28.438Z,98173.20
2018-02-08T07:07:56.164Z,98172.33
2018-02-08T07:10:23.704Z,98181.94
2018-02-08T07:12:51.237Z,98173.20
2018-02-08T07:15:19.305Z,98183.50
2018-02-08T07:17:47.006Z,98184.25
2018-02-08T07:20:14.536Z,98185.49
2018-02-08T07:22:42.114Z,98188.91
2018-02-08T07:25:09.665Z,98192.38
2018-02-08T07:27:37.401Z,98191.54
2018-02-08T07:30:05.066Z,98190.77
2018-02-08T07:32:32.671Z,98194.60
2018-02-08T07:35:00.196Z,98196.02
2018-02-08T07:37:27.730Z,98201.02
2018-02-08T07:39:55.261Z,98201.87
2018-02-08T07:42:22.815Z,98196.44
2018-02-08T07:44:50.345Z,98200.54
2018-02-08T07:47:17.924Z,98204.14
2018-02-08T07:49:45.521Z,98207.53
2018-02-08T07:52:13.125Z,98205.34
2018-02-08T07:54:40.678Z,98209.20
2018-02-08T07:57:08.192Z,98203.14
2018-02-08T07:59:35.735Z,98200.45
2018-02-08T08:02:03.254Z,98207.31
2018-02-08T08:04:30.809Z,98204.47
2018-02-08T08:06:58.356Z,98203.48
2018-02-08T08:09:25.995Z,98208.27
2018-02-08T08:11:53.730Z,98197.96
2018-02-08T08:14:21.259Z,98198.06
2018-02-08T08:16:48.914Z,98199.49
2018-02-08T08:19:16.424Z,98199.72
2018-02-08T08:21:43.961Z,98206.25
2018-02-08T08:24:11.706Z,98207.86
2018-02-08T08:26:39.449Z,98216.95
2018-02-08T08:29:07.164Z,98215.07
2018-02-08T08:31:34.787Z,98219.84
2018-02-08T08:34:02.501Z,98222.19
2018-02-08T08:36:30.064Z,98222.27
2018-02-08T08:38:58.057Z,98222.36
2018-02-08T08:41:25.600Z,98216.00
2018-02-08T08:43:53.139Z,98221.79
2018-02-08T08:46:20.717Z,98224.80
2018-02-08T08:48:48.250Z,98225.38
2018-02-08T08:51:15.856Z,98227.08
2018-02-08T08:53:43.361Z,98229.55
2018-02-08T08:56:10.900Z,98230.10
2018-02-08T08:58:38.520Z,98230.41
2018-02-08T09:01:06.031Z,98239.39
2018-02-08T09:03:33.689Z,98241.03
2018-02-08T09:06:01.222Z,98232.11
2018-02-08T09:08:28.992Z,98242.84
2018-02-08T09:10:56.519Z,98238.75
2018-02-08T09:13:24.066Z,98237.21
2018-02-08T09:15:51.576Z,98247.45
2018-02-08T09:18:19.100Z,98247.46
2018-02-08T09:20:46.691Z,98251.32
2018-02-08T09:23:14.216Z,98249.53
2018-02-08T09:25:41.799Z,98250.99
2018-02-08T09:28:09.311Z,98251.66
2018-02-08T09:30:36.896Z,98249.45
2018-02-08T09:33:04.420Z,98257.59
2018-02-08T09:35:31.990Z,98258.06
2018-02-08T09:37:59.670Z,98258.39
2018-02-08T09:40:27.186Z,98261.38
2018-02-08T09:42:54.794Z,98260.00
2018-02-08T09:45:22.341Z,98259.87
2018-02-08T09:47:50.435Z,98257.80
2018-02-08T09:50:17.966Z,98261.60
2018-02-08T09:52:45.713Z,98259.50
2018-02-08T09:55:13.239Z,98265.80
2018-02-08T09:57:40.756Z,98260.30
2018-02-08T10:00:08.306Z,98265.50
2018-02-08T10:02:35.880Z,98269.33
2018-02-08T10:05:03.425Z,98272.64
2018-02-08T10:07:31.179Z,98261.89
2018-02-08T10:09:58.862Z,98266.29
2018-02-08T10:12:26.461Z,98270.05
2018-02-08T10:14:54.001Z,98268.88
2018-02-08T10:17:21.514Z,98266.88
2018-02-08T10:19:49.105Z,98265.72
2018-02-08T10:22:16.646Z,98268.17
2018-02-08T10:24:44.351Z,98272.70
2018-02-08T10:27:11.870Z,98273.49
2018-02-08T10:29:39.582Z,98270.52
2018-02-08T10:32:07.181Z,98265.09
2018-02-08T10:34:34.691Z,98272.52
2018-02-08T10:37:02.261Z,98274.28
2018-02-08T10:39:29.783Z,98275.25
2018-02-08T10:41:57.325Z,98271.11
2018-02-08T10:44:24.925Z,98271.63
2018-02-08T10:46:52.466Z,98267.28
2018-02-08T10:49:20.009Z,98276.13
2018-02-08T10:51:47.604Z,98274.62
2018-02-08T10:54:15.136Z,98264.20
2018-02-08T10:56:42.670Z,98273.80
2018-02-08T10:59:10.430Z,98270.00
2018-02-08T11:01:37.989Z,98270.87
2018-02-08T11:04:05.653Z,98269.44
2018-02-08T11:06:33.190Z,98264.22
2018-02-08T11:09:00.740Z,98263.36
2018-02-08T11:11:28.263Z,98267.88
2018-02-08T11:13:55.799Z,98261.34
2018-02-08T11:16:23.325Z,98262.59
2018-02-08T11:18:50.866Z,98258.72
2018-02-08T11:21:18.601Z,98260.52
2018-02-08T11:23:46.370Z,98262.61
2018-02-08T11:26:13.889Z,98257.82
2018-02-08T11:28:41.434Z,98254.18
2018-02-08T11:31:09.059Z,98257.52
2018-02-08T11:33:36.655Z,98254.25
2018-02-08T11:36:04.345Z,98253.86
2018-02-08T11:38:31.876Z,98256.01
2018-02-08T11:41:07.651Z,98248.00
2018-02-08T11:43:35.416Z,98247.09
2018-02-08T11:46:03.081Z,98248.69
2018-02-08T11:48:30.626Z,98250.53
2018-02-08T11:50:58.229Z,98244.08
2018-02-08T11:53:25.808Z,98240.34
2018-02-08T11:55:53.451Z,98242.23
2018-02-08T11:58:21.046Z,98240.58
2018-02-08T12:00:49.429Z,98243.89
2018-02-08T12:03:16.981Z,98240.61
2018-02-08T12:05:44.630Z,98241.16
2018-02-08T12:08:12.204Z,98239.56
2018-02-08T12:10:39.714Z,98240.20
2018-02-08T12:13:07.239Z,98235.11
2018-02-08T12:15:34.816Z,98229.33
2018-02-08T12:18:02.350Z,98230.56
2018-02-08T12:20:29.971Z,98226.48
2018-02-08T12:22:57.617Z,98231.91
2018-02-08T12:25:25.177Z,98232.28
2018-02-08T12:27:52.714Z,98223.01
2018-02-08T12:30:20.324Z,98227.19
2018-02-08T12:32:47.860Z,98226.34
2018-02-08T12:35:15.550Z,98220.30
2018-02-08T12:37:43.190Z,98225.66
2018-02-08T12:40:10.713Z,98214.12
2018-02-08T12:42:38.320Z,98211.20
2018-02-08T12:45:06.045Z,98211.85
2018-02-08T12:47:33.565Z,98219.86
2018-02-08T12:50:01.125Z,98214.12
2018-02-08T12:52:28.790Z,98213.99
2018-02-08T12:54:56.338Z,98211.73
2018-02-08T12:57:23.874Z,98211.72
2018-02-08T12:59:51.433Z,98219.48
2018-02-08T13:02:19.054Z,98217.80
2018-02-08T13:04:46.821Z,98213.22
2018-02-08T13:07:14.521Z,98215.25
2018-02-08T13:09:42.929Z,98210.41
2018-02-08T13:12:10.504Z,98205.22
2018-02-08T13:14:38.046Z,98207.77
2018-02-08T13:17:05.565Z,98207.97
2018-02-08T13:19:33.090Z,98210.37
2018-02-08T13:22:00.705Z,98209.48
2018-02-08T13:24:28.301Z,98208.88
2018-02-08T13:26:55.850Z,98210.00
2018-02-08T13:29:23.476Z,98205.33
2018-02-08T13:31:55.768Z,98202.63
2018-02-08T13:34:23.291Z,98209.45
2018-02-08T13:36:50.901Z,98197.42
2018-02-08T13:39:29.290Z,98194.91
2018-02-08T13:41:57.195Z,98198.12
2018-02-08T13:44:24.795Z,98199.28
2018-02-08T13:46:52.360Z,98205.55
2018-02-08T13:49:24.854Z,98199.55
2018-02-08T13:54:59.224Z,98208.94
2018-02-08T13:57:32.342Z,98208.67
2018-02-08T14:00:03.303Z,98206.48
2018-02-08T14:02:30.839Z,98207.30
2018-02-08T14:04:58.454Z,98203.09
2018-02-08T14:07:26.026Z,98201.41
2018-02-08T14:09:53.550Z,98201.21
2018-02-08T14:12:21.096Z,98204.69
2018-02-08T14:14:48.774Z,98210.12
2018-02-08T14:17:16.329Z,98207.33
2018-02-08T14:19:43.919Z,98207.83
2018-02-08T14:22:11.512Z,98207.77
2018-02-08T14:24:39.219Z,98205.95
2018-02-08T14:27:06.841Z,98203.55
2018-02-08T14:29:34.396Z,98200.45
2018-02-08T14:32:02.013Z,98202.29
2018-02-08T14:34:30.389Z,98202.81
2018-02-08T14:36:57.936Z,98204.53
2018-02-08T14:39:25.476Z,98202.03
2018-02-08T14:41:53.044Z,98202.48
2018-02-08T14:44:20.590Z,98200.74
2018-02-08T14:46:48.137Z,98197.08
2018-02-08T14:49:15.697Z,98196.09
2018-02-08T14:51:43.230Z,98193.97
2018-02-08T14:54:10.816Z,98198.94
2018-02-08T14:56:38.437Z,98200.36
2018-02-08T14:59:06.009Z,98197.20
2018-02-08T15:01:33.715Z,98202.97
2018-02-08T15:04:01.260Z,98198.03
2018-02-08T15:06:28.966Z,98206.38
2018-02-08T15:08:56.635Z,98213.03
2018-02-08T15:11:24.576Z,98206.59
2018-02-08T15:13:52.302Z,98207.97
2018-02-08T15:16:20.009Z,98211.83
2018-02-08T15:18:47.622Z,98220.14
2018-02-08T15:21:15.192Z,98215.13
2018-02-08T15:23:42.802Z,98213.75
2018-02-08T15:26:10.459Z,98218.33
2018-02-08T15:28:37.985Z,98216.73
2018-02-08T15:31:05.631Z,98219.77
2018-02-08T15:33:33.225Z,98226.22
2018-02-08T15:36:00.751Z,98214.97
2018-02-08T15:38:28.270Z,98222.92
2018-02-08T15:40:55.821Z,98226.83
2018-02-08T15:43:23.350Z,98225.41
2018-02-08T15:45:50.880Z,98228.45
2018-02-08T15:48:18.496Z,98223.67
2018-02-08T15:50:46.112Z,98227.16
2018-02-08T15:53:13.705Z,98225.16
2018-02-08T15:55:41.252Z,98230.89
2018-02-08T15:58:08.922Z,98229.22
2018-02-08T16:00:36.556Z,98230.88
2018-02-08T16:03:04.211Z,98224.73
2018-02-08T16:05:31.811Z,98230.80
2018-02-08T16:07:59.401Z,98228.52
2018-02-08T16:10:26.930Z,98235.38
2018-02-08T16:12:54.461Z,98233.23
2018-02-08T16:15:22.035Z,98233.23
2018-02-08T16:17:49.596Z,98228.98
2018-02-08T16:20:17.151Z,98228.47
2018-02-08T16:22:44.766Z,98238.89
2018-02-08T16:25:12.335Z,98230.77
2018-02-08T16:27:39.957Z,98232.05
2018-02-08T16:30:07.515Z,98225.65
2018-02-08T16:32:35.120Z,98236.77
2018-02-08T16:38:56.829Z,98235.73
2018-02-08T16:41:24.407Z,98235.94
2018-02-08T16:43:52.027Z,98241.37
2018-02-08T16:46:19.605Z,98241.30
2018-02-08T16:48:47.125Z,98247.06
2018-02-08T16:51:14.651Z,98243.87
2018-02-08T16:53:42.241Z,98250.02
2018-02-08T16:56:09.945Z,98260.64
2018-02-08T16:58:37.477Z,98250.07
2018-02-08T17:01:05.167Z,98256.18
2018-02-08T17:03:32.870Z,98257.52
2018-02-08T17:06:00.426Z,98257.05
2018-02-08T17:08:28.078Z,98252.83
2018-02-08T17:10:55.661Z,98260.20
2018-02-08T17:13:23.590Z,98264.54
2018-02-08T17:15:51.169Z,98260.58
2018-02-08T17:18:18.680Z,98261.23
2018-02-08T17:20:46.316Z,98258.61
2018-02-08T17:23:13.854Z,98264.41
2018-02-08T17:25:41.460Z,98262.12
2018-02-08T17:28:08.991Z,98269.45
2018-02-08T17:30:36.542Z,98272.96
2018-02-08T17:33:04.180Z,98274.84
2018-02-08T17:35:31.822Z,98271.63
2018-02-08T17:37:59.353Z,98276.61
2018-02-08T17:40:26.895Z,98278.83
2018-02-08T17:42:54.530Z,98277.84
2018-02-08T17:45:22.141Z,98277.05
2018-02-08T17:47:49.670Z,98279.38
2018-02-08T17:50:17.219Z,98276.72
2018-02-08T17:52:44.764Z,98278.20
2018-02-08T17:55:12.289Z,98281.27
2018-02-08T17:57:39.968Z,98278.71
2018-02-08T18:00:07.682Z,98281.54
2018-02-08T18:02:35.314Z,98280.77
2018-02-08T18:05:03.197Z,98282.92
2018-02-08T18:07:30.786Z,98278.84
2018-02-08T18:09:58.356Z,98282.08
2018-02-08T18:12:26.021Z,98278.17
2018-02-08T18:14:53.653Z,98284.41
2018-02-08T18:17:21.220Z,98289.09
2018-02-08T18:19:48.856Z,98286.34
2018-02-08T18:22:16.626Z,98289.00
2018-02-08T18:24:44.295Z,98284.43
2018-02-08T18:27:11.927Z,98293.16
2018-02-08T18:29:39.546Z,98289.84
2018-02-08T18:32:07.270Z,98292.17
2018-02-08T18:34:34.908Z,98296.21
2018-02-08T18:37:02.539Z,98293.48
2018-02-08T18:39:30.107Z,98299.16
2018-02-08T18:41:57.777Z,98296.12
2018-02-08T18:44:25.377Z,98297.11
2018-02-08T18:46:52.978Z,98300.88
2018-02-08T18:49:20.839Z,98305.05
2018-02-08T18:51:48.487Z,98307.12
2018-02-08T18:54:16.176Z,98298.43
2018-02-08T18:56:43.831Z,98305.42
2018-02-08T18:59:11.377Z,98300.37
2018-02-08T19:01:38.959Z,98299.83
2018-02-08T19:04:06.518Z,98302.41
2018-02-08T19:06:34.373Z,98295.05
2018-02-08T19:09:01.911Z,98294.26
2018-02-08T19:11:29.460Z,98302.80
2018-02-08T19:13:57.130Z,98303.11
2018-02-08T19:16:25.514Z,98299.50
2018-02-08T19:18:53.045Z,98299.45
2018-02-08T19:21:20.635Z,98301.22
2018-02-08T19:23:48.306Z,98301.97
2018-02-08T19:26:15.846Z,98296.78
2018-02-08T19:28:43.512Z,98297.03
2018-02-08T19:31:11.107Z,98298.84
2018-02-08T19:33:38.665Z,98291.04
2018-02-08T19:36:06.210Z,98296.33
2018-02-08T19:38:33.992Z,98292.02
2018-02-08T19:41:02.166Z,98291.41
2018-02-08T19:43:30.639Z,98293.11
2018-02-08T19:45:58.379Z,98292.65
2018-02-08T19:48:25.996Z,98295.01
2018-02-08T19:50:53.686Z,98299.63
2018-02-08T19:53:21.400Z,98293.17
2018-02-08T19:55:50.051Z,98295.47
2018-02-08T19:58:17.700Z,98291.27
2018-02-08T20:00:45.440Z,98293.66
2018-02-08T20:03:13.104Z,98296.92
2018-02-08T20:05:40.760Z,98287.47
2018-02-08T20:08:08.394Z,98292.84
2018-02-08T20:10:35.958Z,98291.78
2018-02-08T20:13:03.615Z,98290.92
2018-02-08T20:15:40.680Z,98294.80
2018-02-08T20:18:08.251Z,98291.08
2018-02-08T20:20:35.821Z,98297.42
2018-02-08T20:23:03.487Z,98291.08
2018-02-08T20:25:36.554Z,98298.55
2018-02-08T20:28:04.134Z,98292.28
2018-02-08T20:30:31.768Z,98295.13
2018-02-08T20:32:59.440Z,98293.58
2018-02-08T20:35:27.010Z,98290.42
2018-02-08T20:37:54.725Z,98292.75
2018-02-08T20:40:22.300Z,98296.13
2018-02-08T20:42:55.649Z,98296.44
2018-02-08T20:45:23.182Z,98291.47
2018-02-08T20:47:50.756Z,98288.31
2018-02-08T20:50:18.404Z,98286.38
2018-02-08T20:52:46.130Z,98286.66
2018-02-08T20:55:13.789Z,98292.02
2018-02-08T20:57:41.415Z,98291.61
2018-02-08T21:00:09.100Z,98290.98
2018-02-08T21:02:36.656Z,98286.08
2018-02-08T21:05:04.431Z,98282.47
2018-02-08T21:07:32.255Z,98285.59
2018-02-08T21:09:59.792Z,98290.83
2018-02-08T21:12:27.355Z,98289.89
2018-02-08T21:14:54.912Z,98290.69
2018-02-08T21:17:22.551Z,98290.23
2018-02-08T21:19:50.426Z,98297.25
2018-02-08T21:22:17.990Z,98293.20
2018-02-08T21:24:45.626Z,98295.67
2018-02-08T21:27:13.213Z,98294.74
2018-02-08T21:29:40.920Z,98294.79
2018-02-08T21:32:08.465Z,98289.28
2018-02-08T21:34:36.192Z,98291.47
2018-02-08T21:37:03.867Z,98284.78
2018-02-08T21:39:31.711Z,98291.13
2018-02-08T21:41:59.270Z,98285.25
2018-02-08T21:44:26.882Z,98283.83
2018-02-08T21:46:54.520Z,98278.20
2018-02-08T21:49:22.130Z,98269.78
2018-02-08T21:51:49.887Z,98272.09
2018-02-08T21:54:17.556Z,98278.05
2018-02-08T21:56:45.189Z,98265.84
2018-02-08T21:59:12.815Z,98269.31
2018-02-08T22:01:40.394Z,98266.05
2018-02-08T22:04:07.945Z,98262.27
2018-02-08T22:06:35.487Z,98262.87
2018-02-08T22:09:03.030Z,98262.66
2018-02-08T22:11:30.666Z,98259.69
2018-02-08T22:13:58.211Z,98251.16
2018-02-08T22:16:25.781Z,98251.33
2018-02-08T22:18:53.328Z,98259.20
2018-02-08T22:21:20.939Z,98258.11
2018-02-08T22:23:48.487Z,98258.85
2018-02-08T22:26:16.026Z,98253.66
2018-02-08T22:28:43.667Z,98259.97
2018-02-08T22:31:11.240Z,98261.35
2018-02-08T22:33:38.836Z,98264.67
2018-02-08T22:36:06.375Z,98259.28
2018-02-08T22:38:34.366Z,98256.30
2018-02-08T22:41:01.975Z,98253.10
2018-02-08T22:43:29.510Z,98257.58
2018-02-08T22:45:57.066Z,98261.08
2018-02-08T22:48:24.780Z,98257.09
2018-02-08T22:50:52.495Z,98254.30
2018-02-08T22:53:20.037Z,98255.31
2018-02-08T22:55:48.518Z,98255.78
2018-02-08T22:58:16.143Z,98253.47
2018-02-08T23:00:43.764Z,98246.91
2018-02-08T23:03:11.315Z,98249.06
2018-02-08T23:05:38.901Z,98243.78
2018-02-08T23:08:06.649Z,98245.89
2018-02-08T23:10:34.202Z,98248.55
2018-02-08T23:13:01.737Z,98240.09
2018-02-08T23:15:29.396Z,98243.67
2018-02-08T23:17:57.012Z,98240.52
2018-02-08T23:20:24.637Z,98235.05
2018-02-08T23:22:52.292Z,98238.03
2018-02-08T23:25:19.825Z,98235.23
2018-02-08T23:27:47.516Z,98238.92
2018-02-08T23:30:15.040Z,98236.44
2018-02-08T23:32:42.654Z,98235.09
2018-02-08T23:35:10.191Z,98241.58
2018-02-08T23:37:37.938Z,98243.98
2018-02-08T23:40:05.476Z,98245.91
2018-02-08T23:42:33.050Z,98236.77
2018-02-08T23:45:00.694Z,98240.10
2018-02-08T23:47:28.262Z,98234.88
2018-02-08T23:49:55.795Z,98239.45
2018-02-08T23:52:23.340Z,98237.17
2018-02-08T23:54:50.887Z,98232.02
2018-02-08T23:57:18.425Z,98229.49
2018-02-08T23:59:46.031Z,98230.03
